Terminal Aerodrome Forecast
Issued by NWS

Home | Current Version | Previous Version | Text Only | Print | Product List | Glossary On
Versions: 1 2 3 4 5 6 7 8 9 10 11 12 13 14 15 16 17 18 19 20 21 22 23 24
000
FTUS46 KLOX 180200 AAA
TAFLAX
TAF AMD
KLAX 180258Z 1803/1906 27018KT P6SM SKC
     FM180500 25011KT P6SM SKC
     FM181000 23006KT P6SM OVC010
     FM181400 21008KT 5SM HZ OVC015
     FM181800 24009KT 6SM HZ OVC018
     FM182000 24011KT P6SM BKN016
     FM182200 25014KT P6SM SCT015
     FM190300 26011KT P6SM BKN015=

USA.gov is the U.S. government's official web portal to all federal, state and local government web resources and services.